Time;durP1;ratioP1;P1;durP2;ratioP2;P2;SDS_P1;SDS_P2;PMS_P1;PMS_P2;Temp;Humidity;BMP_temperature;BMP_pressure;BME280_temperature;BME280_humidity;BME280_pressure;Samples;Min_cycle;Max_cycle;Signal;HPM_P1;HPM_P2
2021/03/15 00:00:19;;;;;;;4.70;3.13;;;5.40;99.90;;;;;;4998299;28;20824;-57
2021/03/15 00:02:51;;;;;;;6.23;4.13;;;5.50;99.90;;;;;;4996314;28;20954;-56
2021/03/15 00:05:20;;;;;;;7.00;4.30;;;5.50;99.90;;;;;;4999828;28;20429;-54
2021/03/15 00:07:50;;;;;;;5.27;4.30;;;5.50;99.90;;;;;;5000606;28;21010;-56
2021/03/15 00:10:19;;;;;;;5.00;3.80;;;5.40;99.90;;;;;;5002023;28;21097;-57
2021/03/15 00:12:47;;;;;;;4.70;3.00;;;5.40;99.90;;;;;;5004997;28;20454;-57
2021/03/15 00:15:18;;;;;;;5.83;3.10;;;5.40;99.90;;;;;;4994076;28;20971;-55
2021/03/15 00:17:46;;;;;;;4.87;3.10;;;5.40;99.90;;;;;;5000994;28;20455;-54
2021/03/15 00:20:18;;;;;;;6.37;3.00;;;5.40;99.90;;;;;;5001590;28;20449;-56
2021/03/15 00:22:47;;;;;;;4.43;3.17;;;5.30;99.90;;;;;;4998378;28;20445;-56
2021/03/15 00:25:19;;;;;;;6.57;4.23;;;5.30;99.90;;;;;;5003463;28;20461;-55
2021/03/15 00:27:50;;;;;;;5.37;3.47;;;5.30;99.90;;;;;;4995111;28;20959;-54
2021/03/15 00:30:20;;;;;;;3.60;3.07;;;5.30;99.90;;;;;;4999275;28;20803;-56
2021/03/15 00:32:49;;;;;;;5.50;3.83;;;5.30;99.90;;;;;;4997468;28;20826;-54
2021/03/15 00:35:19;;;;;;;6.17;4.10;;;5.30;99.90;;;;;;5003935;28;20468;-53
2021/03/15 00:37:48;;;;;;;6.80;6.03;;;5.30;99.90;;;;;;5007350;28;20764;-52
2021/03/15 00:40:21;;;;;;;4.47;3.63;;;5.30;99.90;;;;;;4995122;28;20653;-54
2021/03/15 00:42:50;;;;;;;5.17;3.23;;;5.30;99.90;;;;;;4994618;28;20484;-56
2021/03/15 00:45:21;;;;;;;5.97;3.50;;;5.30;99.90;;;;;;4990449;28;20786;-57
2021/03/15 00:47:49;;;;;;;6.50;3.80;;;5.30;99.90;;;;;;4988449;28;21232;-57
2021/03/15 00:50:26;;;;;;;6.10;3.50;;;5.20;99.90;;;;;;4997907;28;20777;-56
2021/03/15 00:52:55;;;;;;;5.03;3.30;;;5.20;99.90;;;;;;4990828;28;20461;-57
2021/03/15 00:55:26;;;;;;;8.37;3.40;;;5.20;99.90;;;;;;4990804;28;20454;-56
2021/03/15 00:57:54;;;;;;;4.80;3.00;;;5.20;99.90;;;;;;4997095;28;20827;-54
2021/03/15 01:00:26;;;;;;;10.80;3.00;;;5.20;99.90;;;;;;5000843;28;20470;-56
2021/03/15 01:02:54;;;;;;;8.10;3.53;;;5.30;99.90;;;;;;4993433;28;20836;-55
2021/03/15 01:05:25;;;;;;;4.60;2.90;;;5.20;99.90;;;;;;4993504;28;20482;-55
2021/03/15 01:07:56;;;;;;;9.37;4.10;;;5.20;99.90;;;;;;5001340;28;20485;-54
2021/03/15 01:10:29;;;;;;;7.80;3.90;;;5.30;99.90;;;;;;5001678;28;20772;-56
2021/03/15 01:12:57;;;;;;;5.00;3.87;;;5.30;99.90;;;;;;4995545;28;20453;-54
2021/03/15 01:15:26;;;;;;;7.23;3.20;;;5.30;99.90;;;;;;4988489;28;20791;-53
2021/03/15 01:17:58;;;;;;;3.40;3.10;;;5.30;99.90;;;;;;4988252;28;20484;-54
2021/03/15 01:20:27;;;;;;;5.73;3.33;;;5.40;99.90;;;;;;4994714;28;21133;-53
2021/03/15 01:22:55;;;;;;;3.17;2.60;;;5.40;99.90;;;;;;4996377;28;20485;-53
2021/03/15 01:25:31;;;;;;;4.83;3.97;;;5.40;99.90;;;;;;4997357;28;20904;-56
2021/03/15 01:27:59;;;;;;;6.13;3.53;;;5.40;99.90;;;;;;4990316;28;20828;-56
2021/03/15 01:30:30;;;;;;;7.30;4.00;;;5.40;99.90;;;;;;4994273;28;21587;-55
2021/03/15 01:32:59;;;;;;;7.40;2.90;;;5.40;99.90;;;;;;4991770;28;20462;-55
2021/03/15 01:35:28;;;;;;;5.10;3.50;;;5.40;99.90;;;;;;4984888;28;20464;-54
2021/03/15 01:37:57;;;;;;;5.80;3.33;;;5.40;99.90;;;;;;4995478;28;20870;-55
2021/03/15 01:40:27;;;;;;;5.43;3.50;;;5.40;99.90;;;;;;4990453;28;20962;-52
2021/03/15 01:42:56;;;;;;;6.20;3.20;;;5.30;99.90;;;;;;4993823;28;20794;-53
2021/03/15 01:45:24;;;;;;;5.43;3.10;;;5.30;99.90;;;;;;5000023;28;20458;-56
2021/03/15 01:47:54;;;;;;;6.43;3.70;;;5.30;99.90;;;;;;4991801;28;20907;-55
2021/03/15 01:50:28;;;;;;;4.27;3.30;;;5.30;99.90;;;;;;4996305;28;20466;-56
2021/03/15 01:52:57;;;;;;;6.07;3.13;;;5.20;99.90;;;;;;4992929;28;20466;-54
2021/03/15 01:55:27;;;;;;;6.20;3.30;;;5.30;99.90;;;;;;4995654;28;20774;-56
2021/03/15 01:57:56;;;;;;;7.30;3.00;;;5.30;99.90;;;;;;4986808;28;20787;-55
2021/03/15 02:00:24;;;;;;;5.40;3.63;;;5.30;99.90;;;;;;4989078;28;20804;-57
2021/03/15 02:02:59;;;;;;;7.50;3.83;;;5.30;99.90;;;;;;4993705;28;20780;-57
2021/03/15 02:05:28;;;;;;;4.30;3.53;;;5.30;99.90;;;;;;4989305;28;20459;-52
2021/03/15 02:07:57;;;;;;;6.10;3.33;;;5.30;99.90;;;;;;4994868;28;20863;-57
2021/03/15 02:10:27;;;;;;;7.33;3.20;;;5.20;99.90;;;;;;4995031;28;20741;-57
2021/03/15 02:13:23;;;;;;;5.50;3.67;;;5.30;99.90;;;;;;4991758;28;20786;-55
2021/03/15 02:16:01;;;;;;;6.93;3.70;;;5.30;99.90;;;;;;4990814;28;20470;-55
2021/03/15 02:18:52;;;;;;;6.00;3.60;;;5.30;99.90;;;;;;4999246;28;20752;-53
2021/03/15 02:21:55;;;;;;;7.07;3.23;;;5.30;99.90;;;;;;5003796;28;20489;-57
2021/03/15 02:24:32;;;;;;;5.17;3.60;;;5.30;99.90;;;;;;4987702;28;20462;-56
2021/03/15 02:27:36;;;;;;;6.33;3.20;;;5.30;99.90;;;;;;4982080;28;20453;-56
2021/03/15 02:30:42;;;;;;;6.60;3.93;;;5.30;99.90;;;;;;4989243;28;20798;-52
2021/03/15 02:33:38;;;;;;;6.37;4.20;;;5.30;99.90;;;;;;4958217;28;20966;-52
2021/03/15 02:36:11;;;;;;;5.53;3.40;;;5.30;99.90;;;;;;4997143;28;20923;-51
2021/03/15 02:38:43;;;;;;;9.70;3.80;;;5.30;99.90;;;;;;4997569;28;20477;-55
2021/03/15 02:41:13;;;;;;;6.90;2.90;;;5.30;99.90;;;;;;4999818;28;20828;-51
2021/03/15 02:43:47;;;;;;;4.20;3.10;;;5.40;99.90;;;;;;5003304;28;20854;-54
2021/03/15 02:46:19;;;;;;;5.43;3.10;;;5.30;99.90;;;;;;4993113;28;20795;-52
2021/03/15 02:48:51;;;;;;;9.43;3.97;;;5.30;99.90;;;;;;5004227;28;20975;-51
2021/03/15 02:51:25;;;;;;;8.50;4.03;;;5.30;99.90;;;;;;4998881;28;20802;-52
2021/03/15 02:53:55;;;;;;;5.83;3.30;;;5.30;99.90;;;;;;5002122;28;20964;-55
2021/03/15 02:56:27;;;;;;;4.17;2.40;;;5.30;99.90;;;;;;4998018;28;20763;-55
2021/03/15 02:58:57;;;;;;;7.03;4.10;;;5.30;99.90;;;;;;4984803;28;20455;-55
2021/03/15 03:01:26;;;;;;;9.50;3.60;;;5.30;99.90;;;;;;4993551;28;20537;-54
2021/03/15 03:03:56;;;;;;;6.63;4.00;;;5.30;99.90;;;;;;4997850;28;20883;-55
2021/03/15 03:06:30;;;;;;;11.70;4.13;;;5.40;99.90;;;;;;4990384;28;20792;-55
2021/03/15 03:09:00;;;;;;;5.77;3.93;;;5.40;99.90;;;;;;4994189;28;20839;-56
2021/03/15 03:11:30;;;;;;;7.00;4.80;;;5.30;99.90;;;;;;4990059;28;20771;-54
2021/03/15 03:13:59;;;;;;;9.00;4.57;;;5.30;99.90;;;;;;5002730;28;20781;-56
2021/03/15 03:16:31;;;;;;;6.23;3.97;;;5.30;99.90;;;;;;4994741;28;20911;-55
2021/03/15 03:19:00;;;;;;;7.67;4.40;;;5.20;99.90;;;;;;4998682;28;20779;-57
2021/03/15 03:21:31;;;;;;;6.20;4.23;;;5.20;99.90;;;;;;4991138;28;20814;-57
2021/03/15 03:24:01;;;;;;;7.80;4.10;;;5.20;99.90;;;;;;4989348;28;20868;-55
2021/03/15 03:26:30;;;;;;;7.30;4.17;;;5.20;99.90;;;;;;4991124;28;20818;-52
2021/03/15 03:29:01;;;;;;;10.83;4.47;;;5.20;99.90;;;;;;4993417;28;20819;-52
2021/03/15 03:31:33;;;;;;;7.40;5.27;;;5.20;99.90;;;;;;4994700;28;20474;-55
2021/03/15 03:34:01;;;;;;;7.90;5.33;;;5.20;99.90;;;;;;4994626;28;20801;-55
2021/03/15 03:36:32;;;;;;;8.47;4.73;;;5.20;99.90;;;;;;4982441;28;20769;-56
2021/03/15 03:39:00;;;;;;;10.47;5.33;;;5.20;99.90;;;;;;4994475;28;20477;-51
2021/03/15 03:41:29;;;;;;;8.00;4.30;;;5.30;99.90;;;;;;4998623;28;20785;-55
2021/03/15 03:43:57;;;;;;;15.40;4.60;;;5.30;99.90;;;;;;4987554;28;20450;-53
2021/03/15 03:46:26;;;;;;;9.30;4.10;;;5.30;99.90;;;;;;4998577;28;20517;-54
2021/03/15 03:48:55;;;;;;;8.03;4.83;;;5.30;99.90;;;;;;4994932;28;20615;-51
2021/03/15 03:51:26;;;;;;;7.03;3.83;;;5.30;99.90;;;;;;4993576;28;20825;-51
2021/03/15 03:54:01;;;;;;;11.87;5.67;;;5.20;99.90;;;;;;4999900;28;20517;-53
2021/03/15 03:56:37;;;;;;;5.50;3.60;;;5.20;99.90;;;;;;4992908;28;20462;-56
2021/03/15 03:59:09;;;;;;;7.17;4.20;;;5.20;99.90;;;;;;4988665;28;20787;-56
2021/03/15 04:01:40;;;;;;;7.33;4.77;;;5.10;99.90;;;;;;4991566;28;20806;-51
2021/03/15 04:04:12;;;;;;;12.43;4.60;;;5.10;99.90;;;;;;4993588;28;20921;-51
2021/03/15 04:06:42;;;;;;;9.07;4.13;;;5.10;99.90;;;;;;4996656;28;20449;-53
2021/03/15 04:09:15;;;;;;;9.00;4.63;;;5.10;99.90;;;;;;4996570;28;20481;-52
2021/03/15 04:11:48;;;;;;;6.80;4.10;;;5.00;99.90;;;;;;4987901;28;20461;-53
2021/03/15 04:14:20;;;;;;;9.27;5.37;;;5.00;99.90;;;;;;4996672;28;20791;-56
2021/03/15 04:16:52;;;;;;;13.20;4.90;;;4.90;99.90;;;;;;4996971;28;20776;-57
2021/03/15 04:19:26;;;;;;;7.37;4.50;;;4.90;99.90;;;;;;4998522;28;20987;-57
2021/03/15 04:21:59;;;;;;;9.20;5.13;;;4.90;99.90;;;;;;5005983;28;20489;-57
2021/03/15 04:24:30;;;;;;;7.13;4.50;;;4.90;99.90;;;;;;4994928;28;20853;-53
2021/03/15 04:27:00;;;;;;;6.10;4.17;;;4.90;99.90;;;;;;4995439;28;20450;-53
2021/03/15 04:29:29;;;;;;;6.77;3.50;;;4.90;99.90;;;;;;4992658;28;20590;-54
2021/03/15 04:31:58;;;;;;;11.90;4.77;;;4.80;99.90;;;;;;5008388;28;20454;-53
2021/03/15 04:34:26;;;;;;;10.10;4.70;;;4.80;99.90;;;;;;5001232;28;20525;-57
2021/03/15 04:36:55;;;;;;;7.80;5.07;;;4.80;99.90;;;;;;5002147;28;20483;-56
2021/03/15 04:39:23;;;;;;;7.67;4.37;;;4.80;99.90;;;;;;5009441;28;20513;-57
2021/03/15 04:41:56;;;;;;;9.33;5.50;;;4.80;99.90;;;;;;5009346;28;20455;-57
2021/03/15 04:44:24;;;;;;;10.60;5.40;;;4.80;99.90;;;;;;5002043;28;20494;-57
2021/03/15 04:46:53;;;;;;;9.27;4.03;;;4.80;99.90;;;;;;4997077;28;20858;-50
2021/03/15 04:49:22;;;;;;;9.40;5.57;;;4.80;99.90;;;;;;5004916;28;20488;-50
2021/03/15 04:51:53;;;;;;;7.10;4.63;;;4.90;99.90;;;;;;5002990;28;20514;-52
2021/03/15 04:54:21;;;;;;;6.67;3.60;;;4.90;99.90;;;;;;5002794;28;20592;-51
2021/03/15 04:56:56;;;;;;;9.73;4.83;;;4.90;99.90;;;;;;4999822;28;20462;-54
2021/03/15 04:59:28;;;;;;;6.07;3.93;;;4.90;99.90;;;;;;5007056;28;20480;-60
2021/03/15 05:01:58;;;;;;;10.00;4.37;;;4.90;99.90;;;;;;5002046;28;20522;-54
2021/03/15 05:04:26;;;;;;;14.37;4.77;;;4.90;99.90;;;;;;4996881;28;20539;-60
2021/03/15 05:06:56;;;;;;;10.20;5.83;;;4.90;99.90;;;;;;5005768;28;20462;-57
2021/03/15 05:09:25;;;;;;;7.77;4.63;;;4.80;99.90;;;;;;4996192;28;20467;-55
2021/03/15 05:11:56;;;;;;;9.53;5.07;;;4.90;99.90;;;;;;4997107;28;20530;-54
2021/03/15 05:14:24;;;;;;;10.33;5.43;;;4.80;99.90;;;;;;5006082;28;20465;-57
2021/03/15 05:16:52;;;;;;;10.37;5.10;;;4.80;99.90;;;;;;5002278;28;20470;-55
2021/03/15 05:19:21;;;;;;;8.00;4.30;;;4.80;99.90;;;;;;5004881;28;20525;-54
2021/03/15 05:21:51;;;;;;;8.37;4.60;;;4.80;99.90;;;;;;5011771;28;20927;-56
2021/03/15 05:24:20;;;;;;;5.43;3.80;;;4.80;99.90;;;;;;5011429;28;20890;-54
2021/03/15 05:26:48;;;;;;;9.93;5.00;;;4.80;99.90;;;;;;5005164;28;20521;-57
2021/03/15 05:29:18;;;;;;;10.17;4.83;;;4.80;99.90;;;;;;5015704;28;20481;-54
2021/03/15 05:31:48;;;;;;;9.20;4.70;;;4.80;99.90;;;;;;5011246;28;20435;-51
2021/03/15 05:34:20;;;;;;;9.80;4.90;;;4.80;99.90;;;;;;5006746;28;20434;-50
2021/03/15 05:36:48;;;;;;;7.50;5.10;;;4.80;99.90;;;;;;5001363;28;20471;-51
2021/03/15 05:39:16;;;;;;;8.27;4.87;;;4.80;99.90;;;;;;5002552;28;20451;-56
2021/03/15 05:42:08;;;;;;;9.67;4.97;;;4.80;99.90;;;;;;5010384;28;20896;-54
2021/03/15 05:45:00;;;;;;;10.90;4.80;;;4.70;99.90;;;;;;5010614;28;20938;-53
2021/03/15 05:48:13;;;;;;;9.37;5.17;;;4.70;99.90;;;;;;5009067;28;20443;-54
2021/03/15 05:51:15;;;;;;;7.43;4.33;;;4.70;99.90;;;;;;4977272;29;20448;-55
2021/03/15 05:54:20;;;;;;;9.33;5.50;;;4.70;99.90;;;;;;4980930;28;20751;-53
2021/03/15 05:57:19;;;;;;;9.97;5.17;;;4.70;99.90;;;;;;5002180;28;20434;-53
2021/03/15 06:00:08;;;;;;;9.63;4.67;;;4.70;99.90;;;;;;4991336;28;20545;-56
2021/03/15 06:03:00;;;;;;;8.30;4.53;;;4.70;99.90;;;;;;4999310;28;20447;-54
2021/03/15 06:05:29;;;;;;;10.83;4.43;;;4.70;99.90;;;;;;4996768;28;20450;-56
2021/03/15 06:08:05;;;;;;;8.20;5.27;;;4.80;99.90;;;;;;5009300;28;20477;-57
2021/03/15 06:10:53;;;;;;;10.00;5.30;;;4.80;99.90;;;;;;5003395;28;20813;-57
2021/03/15 06:13:21;;;;;;;9.53;5.27;;;4.90;99.90;;;;;;5004075;28;20459;-57
2021/03/15 06:15:51;;;;;;;8.53;4.63;;;4.90;99.90;;;;;;5004315;28;20458;-58
2021/03/15 06:18:20;;;;;;;16.23;5.10;;;4.90;99.90;;;;;;5001834;28;20503;-51
2021/03/15 06:20:49;;;;;;;10.83;4.57;;;5.00;99.90;;;;;;5005368;28;20476;-54
2021/03/15 06:23:18;;;;;;;9.23;4.80;;;5.00;99.90;;;;;;5005921;28;20425;-51
2021/03/15 06:25:47;;;;;;;16.73;5.73;;;5.00;99.90;;;;;;5013280;28;20453;-52
2021/03/15 06:28:17;;;;;;;9.90;5.37;;;5.00;99.90;;;;;;4991362;28;20530;-54
2021/03/15 06:30:46;;;;;;;9.47;5.37;;;5.10;99.90;;;;;;4999174;28;20457;-55
2021/03/15 06:33:16;;;;;;;9.20;4.77;;;5.10;99.90;;;;;;5007160;28;20983;-55
2021/03/15 06:35:47;;;;;;;8.87;4.77;;;5.10;99.90;;;;;;5000496;28;20457;-54
2021/03/15 06:38:18;;;;;;;7.87;4.20;;;5.10;99.90;;;;;;5007669;28;20514;-57
2021/03/15 06:40:48;;;;;;;6.47;4.33;;;5.20;99.90;;;;;;5005578;28;20453;-55
2021/03/15 06:43:17;;;;;;;13.70;4.90;;;5.20;99.90;;;;;;4997384;28;20485;-54
2021/03/15 06:45:49;;;;;;;7.03;5.13;;;5.10;99.90;;;;;;4996890;28;20438;-52
2021/03/15 06:48:20;;;;;;;5.80;4.60;;;5.20;99.90;;;;;;5009901;28;21005;-55
2021/03/15 06:50:48;;;;;;;9.60;5.50;;;5.30;99.90;;;;;;5011517;28;20458;-56
2021/03/15 06:53:15;;;;;;;9.53;5.33;;;5.30;99.90;;;;;;5007569;28;20522;-57
2021/03/15 06:55:50;;;;;;;8.30;4.17;;;5.30;99.90;;;;;;5000526;28;20467;-55
2021/03/15 06:58:28;;;;;;;4.73;4.20;;;5.30;99.90;;;;;;5004626;28;20461;-52
2021/03/15 07:01:15;;;;;;;9.73;4.13;;;5.40;99.90;;;;;;5014803;28;20785;-52
2021/03/15 07:03:46;;;;;;;9.10;4.00;;;5.40;99.90;;;;;;4998584;28;20461;-55
2021/03/15 07:06:15;;;;;;;11.43;7.27;;;5.40;99.90;;;;;;5006438;28;20454;-55
2021/03/15 07:08:44;;;;;;;10.17;4.57;;;5.30;99.90;;;;;;4996136;28;20904;-52
2021/03/15 07:11:22;;;;;;;11.80;4.70;;;5.40;99.90;;;;;;5008119;28;20448;-54
2021/03/15 07:13:51;;;;;;;7.20;4.63;;;5.50;99.90;;;;;;5007402;28;20442;-53
2021/03/15 07:16:29;;;;;;;8.17;4.80;;;5.50;99.90;;;;;;5006684;28;21051;-52
2021/03/15 07:18:59;;;;;;;8.80;5.00;;;5.40;99.90;;;;;;4997031;28;20439;-51
2021/03/15 07:21:41;;;;;;;7.57;5.07;;;5.40;99.90;;;;;;5005081;28;20545;-55
2021/03/15 07:24:12;;;;;;;6.10;3.90;;;5.50;99.90;;;;;;4986528;28;20522;-56
2021/03/15 07:26:44;;;;;;;12.00;5.50;;;5.60;99.90;;;;;;5002504;28;20506;-50
2021/03/15 07:29:14;;;;;;;7.50;3.87;;;5.60;99.90;;;;;;5005352;28;20838;-51
2021/03/15 07:31:45;;;;;;;7.00;4.20;;;5.60;99.90;;;;;;5005231;28;20514;-55
2021/03/15 07:34:17;;;;;;;19.77;5.50;;;5.60;99.90;;;;;;5010558;28;20740;-51
2021/03/15 07:36:54;;;;;;;7.80;4.37;;;5.60;99.90;;;;;;5008136;28;20462;-51
2021/03/15 07:39:23;;;;;;;13.33;5.20;;;5.70;99.90;;;;;;5002222;28;20987;-52
2021/03/15 07:41:53;;;;;;;10.30;5.07;;;5.70;99.90;;;;;;5018333;28;20454;-60
2021/03/15 07:44:28;;;;;;;7.30;4.60;;;5.70;99.90;;;;;;5004140;28;20470;-52
2021/03/15 07:47:00;;;;;;;16.63;5.27;;;5.80;99.90;;;;;;5005691;28;20453;-51
2021/03/15 07:49:34;;;;;;;12.90;4.30;;;5.80;99.90;;;;;;5005385;28;20804;-54
2021/03/15 07:52:07;;;;;;;12.17;5.13;;;5.80;99.90;;;;;;5001690;28;20463;-52
2021/03/15 07:54:37;;;;;;;8.20;4.83;;;5.90;99.90;;;;;;5006810;28;20791;-56
2021/03/15 07:57:18;;;;;;;8.13;6.20;;;5.80;99.90;;;;;;5010130;28;20446;-57
2021/03/15 07:59:47;;;;;;;7.43;4.70;;;5.90;99.90;;;;;;5008657;28;20888;-54
2021/03/15 08:02:18;;;;;;;7.17;4.63;;;6.00;99.90;;;;;;5008306;28;20862;-53
2021/03/15 08:04:47;;;;;;;7.77;4.97;;;6.00;99.90;;;;;;5014798;28;20449;-56
2021/03/15 08:07:17;;;;;;;9.90;4.77;;;6.00;99.90;;;;;;5006619;28;20457;-57
2021/03/15 08:09:46;;;;;;;10.33;4.83;;;5.90;99.90;;;;;;5002645;28;20477;-56
2021/03/15 08:12:16;;;;;;;9.20;5.00;;;6.00;99.90;;;;;;5007128;28;20455;-55
2021/03/15 08:14:47;;;;;;;7.30;4.40;;;6.10;99.90;;;;;;5015116;28;20730;-56
2021/03/15 08:17:20;;;;;;;8.03;5.00;;;6.20;99.90;;;;;;5010447;28;20446;-55
2021/03/15 08:19:49;;;;;;;11.40;4.67;;;6.60;99.90;;;;;;5002456;28;20466;-54
2021/03/15 08:22:27;;;;;;;8.30;4.63;;;6.80;99.90;;;;;;5002499;28;20544;-53
2021/03/15 08:24:59;;;;;;;4.33;3.50;;;7.00;99.90;;;;;;5009148;28;20439;-54
2021/03/15 08:27:31;;;;;;;14.00;4.47;;;7.10;99.90;;;;;;4998601;28;20458;-55
2021/03/15 08:30:02;;;;;;;8.87;4.70;;;7.20;99.90;;;;;;5012469;28;20455;-55
2021/03/15 08:32:35;;;;;;;10.13;4.03;;;7.30;99.90;;;;;;5012355;28;20469;-58
2021/03/15 08:35:09;;;;;;;8.67;4.67;;;7.50;99.90;;;;;;4992230;28;20455;-58
2021/03/15 08:38:00;;;;;;;6.07;4.10;;;7.50;99.90;;;;;;4993216;28;20794;-56
2021/03/15 08:40:52;;;;;;;6.67;5.00;;;7.50;99.90;;;;;;4984048;28;20827;-58
2021/03/15 08:43:29;;;;;;;12.60;5.60;;;7.50;99.90;;;;;;4978589;28;20803;-58
2021/03/15 08:45:59;;;;;;;9.00;5.80;;;7.40;99.90;;;;;;4987654;28;20442;-59
2021/03/15 08:48:50;;;;;;;7.03;4.73;;;7.30;99.90;;;;;;4990703;28;20934;-58
2021/03/15 08:51:44;;;;;;;8.60;5.17;;;7.30;99.90;;;;;;4993280;28;20780;-56
2021/03/15 08:54:14;;;;;;;6.07;5.47;;;7.20;99.90;;;;;;4983821;28;20949;-58
2021/03/15 08:59:51;;;;;;;8.97;5.43;;;7.20;99.90;;;;;;5006226;28;20481;-55
2021/03/15 09:02:34;;;;;;;8.73;5.40;;;7.30;99.90;;;;;;5019872;28;20530;-55
2021/03/15 09:05:23;;;;;;;8.73;5.70;;;7.30;99.90;;;;;;5000392;28;20471;-54
2021/03/15 09:07:52;;;;;;;10.00;4.67;;;7.40;99.90;;;;;;5008145;28;20898;-58
2021/03/15 09:10:45;;;;;;;7.80;5.20;;;7.40;99.90;;;;;;4996320;28;20478;-54
2021/03/15 09:13:32;;;;;;;6.33;5.03;;;7.50;99.90;;;;;;4996350;28;20447;-53
2021/03/15 09:16:06;;;;;;;7.30;4.60;;;7.50;99.90;;;;;;5008937;28;20464;-52
2021/03/15 09:19:01;;;;;;;7.43;5.03;;;7.40;99.90;;;;;;5014588;28;20477;-54
2021/03/15 09:21:59;;;;;;;5.20;3.73;;;7.50;99.90;;;;;;4997389;28;20478;-57
2021/03/15 09:25:03;;;;;;;5.53;4.27;;;7.40;99.90;;;;;;5013837;28;20454;-56
2021/03/15 09:27:36;;;;;;;9.77;4.50;;;7.40;99.90;;;;;;4985943;28;20511;-55
2021/03/15 09:30:13;;;;;;;9.80;4.90;;;7.30;99.90;;;;;;5011532;28;20470;-53
2021/03/15 09:32:43;;;;;;;5.03;4.40;;;7.40;99.90;;;;;;4983977;28;20474;-55
2021/03/15 09:35:35;;;;;;;7.90;4.57;;;7.50;99.90;;;;;;5002098;28;20453;-53
2021/03/15 09:38:05;;;;;;;4.30;3.40;;;7.50;99.90;;;;;;4998818;28;20435;-55
2021/03/15 09:40:45;;;;;;;3.70;3.07;;;7.70;99.90;;;;;;5002129;28;20454;-54
2021/03/15 09:43:20;;;;;;;4.80;3.70;;;8.00;99.90;;;;;;5008944;28;20424;-56
2021/03/15 09:45:56;;;;;;;4.30;3.30;;;8.20;99.90;;;;;;4995829;28;20482;-53
2021/03/15 09:48:26;;;;;;;5.00;4.07;;;8.50;99.90;;;;;;4994370;28;20808;-56
2021/03/15 09:50:56;;;;;;;7.77;3.63;;;8.80;99.90;;;;;;4990670;28;20872;-53
2021/03/15 09:53:24;;;;;;;10.90;3.80;;;9.30;99.90;;;;;;5000229;28;20496;-54
2021/03/15 09:56:03;;;;;;;5.67;2.90;;;10.10;99.90;;;;;;4982364;28;20971;-57
2021/03/15 09:58:32;;;;;;;4.73;3.20;;;10.90;99.90;;;;;;4986604;28;20940;-57
2021/03/15 10:00:59;;;;;;;4.80;4.23;;;11.70;99.90;;;;;;4998533;28;20444;-53
2021/03/15 10:03:31;;;;;;;5.97;3.70;;;12.10;99.90;;;;;;5001715;28;20438;-56
2021/03/15 10:06:00;;;;;;;4.23;3.30;;;12.70;99.90;;;;;;4992139;28;20453;-56
2021/03/15 10:08:28;;;;;;;6.03;2.90;;;13.40;99.90;;;;;;4992699;28;20482;-58
2021/03/15 10:10:59;;;;;;;5.00;3.20;;;13.40;99.90;;;;;;4996528;28;20482;-56
2021/03/15 10:13:28;;;;;;;4.10;2.60;;;12.70;99.90;;;;;;4987338;28;20812;-57
2021/03/15 10:16:08;;;;;;;5.50;3.20;;;12.40;99.90;;;;;;4980094;28;20790;-57
2021/03/15 10:18:37;;;;;;;3.03;2.73;;;12.10;99.90;;;;;;4975912;28;20818;-55
2021/03/15 10:21:11;;;;;;;3.10;2.40;;;12.00;99.90;;;;;;5085306;23;20693;-56
2021/03/15 10:23:53;;;;;;;3.77;2.80;;;12.00;99.90;;;;;;5009528;23;20834;-57
2021/03/15 10:26:39;;;;;;;3.60;2.80;;;11.50;99.90;;;;;;4993012;28;20453;-56
2021/03/15 10:29:09;;;;;;;3.87;3.07;;;10.70;99.90;;;;;;4980642;28;20882;-55
2021/03/15 10:31:40;;;;;;;4.13;2.43;;;10.60;99.90;;;;;;4989719;28;20455;-56
2021/03/15 10:34:17;;;;;;;8.03;3.00;;;10.50;99.90;;;;;;4985226;28;20474;-57
2021/03/15 10:36:44;;;;;;;3.57;2.27;;;10.30;99.90;;;;;;4988380;28;20476;-56
2021/03/15 10:39:12;;;;;;;2.67;2.43;;;10.00;99.90;;;;;;4984129;28;20530;-59
2021/03/15 10:41:43;;;;;;;4.10;2.37;;;10.00;99.90;;;;;;4984255;28;20785;-54
2021/03/15 10:44:12;;;;;;;4.57;2.60;;;10.40;99.90;;;;;;4978179;28;20462;-54
2021/03/15 10:46:48;;;;;;;11.40;3.37;;;10.40;99.90;;;;;;4987356;28;20916;-55
2021/03/15 10:49:20;;;;;;;3.33;3.00;;;10.30;99.90;;;;;;4985021;28;20860;-54
2021/03/15 10:51:51;;;;;;;4.53;2.40;;;10.20;99.90;;;;;;4984300;28;20483;-56
2021/03/15 10:54:35;;;;;;;4.03;2.00;;;9.90;99.90;;;;;;4983234;28;20855;-57
2021/03/15 10:57:15;;;;;;;2.20;2.00;;;9.80;99.90;;;;;;4979521;28;20932;-55
2021/03/15 10:59:43;;;;;;;2.10;1.90;;;9.70;99.90;;;;;;4985152;28;20960;-51
2021/03/15 11:02:19;;;;;;;3.07;2.27;;;9.40;99.90;;;;;;4988943;28;20470;-49
2021/03/15 11:04:53;;;;;;;2.90;1.10;;;9.20;99.90;;;;;;4984998;28;20827;-54
2021/03/15 11:07:27;;;;;;;2.40;1.87;;;9.10;99.90;;;;;;4991686;28;20447;-56
2021/03/15 11:09:56;;;;;;;3.53;1.97;;;9.00;99.90;;;;;;5003959;28;20466;-56
2021/03/15 11:12:40;;;;;;;2.90;2.00;;;9.00;99.90;;;;;;4992148;28;20899;-57
2021/03/15 11:15:16;;;;;;;3.63;2.00;;;8.80;99.90;;;;;;4997318;28;20929;-57
2021/03/15 11:17:59;;;;;;;2.50;2.00;;;8.80;99.90;;;;;;4997007;28;20493;-57
2021/03/15 11:20:55;;;;;;;2.83;2.10;;;8.90;99.90;;;;;;4994285;28;20821;-56
2021/03/15 11:23:32;;;;;;;2.53;1.23;;;9.30;99.90;;;;;;4994976;28;20835;-55
2021/03/15 11:26:05;;;;;;;3.73;1.80;;;9.60;99.90;;;;;;4988215;28;20489;-52
2021/03/15 11:28:37;;;;;;;1.90;1.67;;;9.80;99.90;;;;;;4977636;28;20828;-51
2021/03/15 11:31:07;;;;;;;2.10;1.73;;;10.00;99.90;;;;;;4979157;28;20821;-55
2021/03/15 11:33:35;;;;;;;3.73;1.93;;;10.20;99.90;;;;;;4996393;28;20462;-55
2021/03/15 11:36:14;;;;;;;1.97;1.47;;;10.10;99.90;;;;;;4986319;28;20458;-55
2021/03/15 11:38:49;;;;;;;1.63;1.53;;;10.00;99.90;;;;;;4989058;28;20800;-55
2021/03/15 11:41:21;;;;;;;2.50;1.80;;;10.10;99.90;;;;;;4988984;28;20457;-51
2021/03/15 11:43:51;;;;;;;2.50;1.87;;;10.30;99.90;;;;;;4994188;28;20843;-55
2021/03/15 11:46:20;;;;;;;2.17;1.97;;;10.40;99.90;;;;;;4978158;28;20458;-56
2021/03/15 11:48:49;;;;;;;2.00;1.63;;;10.40;99.90;;;;;;4989853;28;21383;-56
2021/03/15 11:51:18;;;;;;;4.90;2.10;;;10.50;99.90;;;;;;4994544;28;20467;-54
2021/03/15 11:53:47;;;;;;;5.00;1.87;;;10.50;99.90;;;;;;4999766;28;20451;-54
2021/03/15 11:56:16;;;;;;;2.20;1.30;;;10.40;99.90;;;;;;5014731;28;20468;-54
2021/03/15 11:58:44;;;;;;;2.60;1.60;;;10.50;99.90;;;;;;4996655;28;20895;-52
2021/03/15 12:01:14;;;;;;;2.27;1.83;;;10.60;99.90;;;;;;5008479;28;20431;-53
2021/03/15 12:03:41;;;;;;;5.60;1.67;;;10.70;99.90;;;;;;5014908;28;20938;-49
2021/03/15 12:06:10;;;;;;;3.10;2.60;;;11.00;99.90;;;;;;4995316;28;20925;-49
2021/03/15 12:08:37;;;;;;;2.80;1.80;;;11.10;99.90;;;;;;4995002;28;20474;-50
2021/03/15 12:11:05;;;;;;;2.63;2.00;;;11.10;99.90;;;;;;4989358;28;20443;-50
2021/03/15 12:13:32;;;;;;;1.90;1.60;;;11.20;99.90;;;;;;5004940;28;20461;-55
2021/03/15 12:16:00;;;;;;;1.50;1.30;;;11.30;99.90;;;;;;5000182;28;20441;-54
2021/03/15 12:18:29;;;;;;;2.63;1.93;;;11.10;99.90;;;;;;4994301;28;20466;-48
2021/03/15 12:20:57;;;;;;;1.70;1.50;;;11.00;99.90;;;;;;4987671;28;20882;-49
2021/03/15 12:23:25;;;;;;;2.80;1.83;;;11.00;99.90;;;;;;5012961;28;20489;-48
2021/03/15 12:25:59;;;;;;;2.17;1.77;;;11.00;99.90;;;;;;5156588;23;20449;-54
2021/03/15 12:28:27;;;;;;;2.27;2.00;;;11.20;99.90;;;;;;4998527;28;20502;-54
2021/03/15 12:30:55;;;;;;;2.03;1.83;;;10.90;99.90;;;;;;5002126;28;20470;-52
2021/03/15 12:33:22;;;;;;;3.23;2.23;;;10.70;99.90;;;;;;4998967;28;20457;-53
2021/03/15 12:35:52;;;;;;;2.50;1.90;;;10.60;99.90;;;;;;4996621;28;20636;-51
2021/03/15 12:38:20;;;;;;;1.60;1.50;;;10.50;99.90;;;;;;5002200;28;20437;-53
2021/03/15 12:40:48;;;;;;;2.50;2.20;;;10.70;99.90;;;;;;5014988;28;20451;-54
2021/03/15 12:43:15;;;;;;;2.33;2.10;;;10.80;99.90;;;;;;5012674;28;20491;-51
2021/03/15 12:45:43;;;;;;;5.70;2.47;;;10.90;99.90;;;;;;5003988;28;20826;-51
2021/03/15 12:48:11;;;;;;;5.87;4.00;;;10.80;99.90;;;;;;5011981;28;20485;-55
2021/03/15 12:50:39;;;;;;;6.00;2.20;;;10.80;99.90;;;;;;5007726;28;20443;-50
2021/03/15 12:53:07;;;;;;;7.57;2.57;;;10.60;99.90;;;;;;4998728;28;20474;-53
2021/03/15 12:55:35;;;;;;;3.93;2.33;;;10.30;99.90;;;;;;5000032;28;20441;-54
2021/03/15 12:58:11;;;;;;;3.33;2.80;;;10.10;99.90;;;;;;4999349;28;20501;-52
2021/03/15 13:00:42;;;;;;;3.07;2.33;;;9.80;99.90;;;;;;4999015;28;20489;-54
2021/03/15 13:29:12;;;;;;;4.97;3.43;;;10.40;99.90;;;;;;5216929;23;20489;-55
2021/03/15 13:31:42;;;;;;;4.83;2.10;;;10.20;99.90;;;;;;4978181;28;20774;-48
2021/03/15 13:34:10;;;;;;;4.40;2.40;;;10.00;99.90;;;;;;4974238;28;20779;-53
2021/03/15 13:36:39;;;;;;;4.43;2.53;;;9.90;99.90;;;;;;4978604;28;20773;-51
2021/03/15 13:39:07;;;;;;;5.60;3.57;;;9.70;99.90;;;;;;4986556;28;20753;-54
2021/03/15 13:41:35;;;;;;;6.77;3.70;;;9.50;99.90;;;;;;4980339;28;20463;-53
2021/03/15 13:44:04;;;;;;;3.90;2.83;;;9.30;99.90;;;;;;4982011;28;20454;-49
2021/03/15 13:46:33;;;;;;;8.00;3.53;;;9.10;99.90;;;;;;4986012;28;20831;-51
2021/03/15 13:49:01;;;;;;;3.17;2.87;;;8.80;99.90;;;;;;4989687;28;20475;-52
2021/03/15 13:51:29;;;;;;;4.60;2.90;;;8.70;99.90;;;;;;4988371;28;20562;-49